sensor_id;sensor_type;location;lat;lon;timestamp;P1;durP1;ratioP1;P2;durP2;ratioP2
20814;SDS011;10568;48.176;16.316;2023-07-31T00:01:18;2.27;;;0.87;;
20814;SDS011;10568;48.176;16.316;2023-07-31T00:03:45;1.30;;;1.07;;
20814;SDS011;10568;48.176;16.316;2023-07-31T00:06:12;3.13;;;0.90;;
20814;SDS011;10568;48.176;16.316;2023-07-31T00:08:37;1.37;;;1.00;;
20814;SDS011;10568;48.176;16.316;2023-07-31T00:11:03;2.83;;;1.00;;
20814;SDS011;10568;48.176;16.316;2023-07-31T00:13:29;1.23;;;1.00;;
20814;SDS011;10568;48.176;16.316;2023-07-31T00:15:54;0.93;;;0.77;;
20814;SDS011;10568;48.176;16.316;2023-07-31T00:18:20;1.63;;;0.97;;
20814;SDS011;10568;48.176;16.316;2023-07-31T00:20:46;1.37;;;0.93;;
20814;SDS011;10568;48.176;16.316;2023-07-31T00:23:12;2.80;;;1.03;;
20814;SDS011;10568;48.176;16.316;2023-07-31T00:25:38;0.80;;;0.80;;
20814;SDS011;10568;48.176;16.316;2023-07-31T00:28:03;1.40;;;0.80;;
20814;SDS011;10568;48.176;16.316;2023-07-31T00:30:29;1.27;;;0.90;;
20814;SDS011;10568;48.176;16.316;2023-07-31T00:32:55;1.70;;;1.03;;
20814;SDS011;10568;48.176;16.316;2023-07-31T00:35:21;1.20;;;0.80;;
20814;SDS011;10568;48.176;16.316;2023-07-31T00:37:46;1.97;;;1.10;;
20814;SDS011;10568;48.176;16.316;2023-07-31T00:40:12;1.50;;;1.10;;
20814;SDS011;10568;48.176;16.316;2023-07-31T00:42:39;1.10;;;0.90;;
20814;SDS011;10568;48.176;16.316;2023-07-31T00:45:05;1.80;;;0.73;;
20814;SDS011;10568;48.176;16.316;2023-07-31T00:47:31;2.33;;;1.00;;
20814;SDS011;10568;48.176;16.316;2023-07-31T00:49:57;1.97;;;1.00;;
20814;SDS011;10568;48.176;16.316;2023-07-31T00:52:32;1.20;;;0.93;;
20814;SDS011;10568;48.176;16.316;2023-07-31T00:54:58;0.73;;;0.70;;
20814;SDS011;10568;48.176;16.316;2023-07-31T00:57:24;0.80;;;0.80;;
20814;SDS011;10568;48.176;16.316;2023-07-31T00:59:50;1.70;;;0.90;;
20814;SDS011;10568;48.176;16.316;2023-07-31T01:02:16;1.60;;;1.00;;
20814;SDS011;10568;48.176;16.316;2023-07-31T01:04:42;1.67;;;0.87;;
20814;SDS011;10568;48.176;16.316;2023-07-31T01:10:02;1.80;;;0.87;;
20814;SDS011;10568;48.176;16.316;2023-07-31T01:12:35;2.53;;;1.03;;
20814;SDS011;10568;48.176;16.316;2023-07-31T01:15:03;1.47;;;0.90;;
20814;SDS011;10568;48.176;16.316;2023-07-31T01:17:39;1.67;;;0.90;;
20814;SDS011;10568;48.176;16.316;2023-07-31T01:20:26;1.63;;;1.10;;
20814;SDS011;10568;48.176;16.316;2023-07-31T01:31:25;1.50;;;0.93;;
20814;SDS011;10568;48.176;16.316;2023-07-31T01:33:52;1.10;;;0.80;;
20814;SDS011;10568;48.176;16.316;2023-07-31T01:36:19;2.03;;;1.03;;
20814;SDS011;10568;48.176;16.316;2023-07-31T01:38:45;2.63;;;0.83;;
20814;SDS011;10568;48.176;16.316;2023-07-31T01:41:11;1.63;;;0.80;;
20814;SDS011;10568;48.176;16.316;2023-07-31T01:43:37;1.63;;;1.10;;
20814;SDS011;10568;48.176;16.316;2023-07-31T01:46:02;2.17;;;1.00;;
20814;SDS011;10568;48.176;16.316;2023-07-31T01:48:28;1.03;;;0.90;;
20814;SDS011;10568;48.176;16.316;2023-07-31T01:50:54;1.37;;;0.90;;
20814;SDS011;10568;48.176;16.316;2023-07-31T01:53:19;1.50;;;0.97;;
20814;SDS011;10568;48.176;16.316;2023-07-31T01:56:00;0.80;;;0.80;;
20814;SDS011;10568;48.176;16.316;2023-07-31T01:58:26;1.67;;;1.00;;
20814;SDS011;10568;48.176;16.316;2023-07-31T02:00:52;1.47;;;1.10;;
20814;SDS011;10568;48.176;16.316;2023-07-31T02:03:17;3.77;;;1.10;;
20814;SDS011;10568;48.176;16.316;2023-07-31T02:05:44;0.90;;;0.90;;
20814;SDS011;10568;48.176;16.316;2023-07-31T02:08:13;2.80;;;1.03;;
20814;SDS011;10568;48.176;16.316;2023-07-31T02:10:39;1.83;;;1.10;;
20814;SDS011;10568;48.176;16.316;2023-07-31T02:13:05;1.80;;;1.10;;
20814;SDS011;10568;48.176;16.316;2023-07-31T02:15:30;3.23;;;1.13;;
20814;SDS011;10568;48.176;16.316;2023-07-31T02:17:56;1.67;;;1.10;;
20814;SDS011;10568;48.176;16.316;2023-07-31T02:20:22;1.03;;;0.93;;
20814;SDS011;10568;48.176;16.316;2023-07-31T02:22:48;3.63;;;1.10;;
20814;SDS011;10568;48.176;16.316;2023-07-31T02:25:13;2.17;;;1.00;;
20814;SDS011;10568;48.176;16.316;2023-07-31T02:27:39;1.40;;;1.00;;
20814;SDS011;10568;48.176;16.316;2023-07-31T02:30:05;1.33;;;1.00;;
20814;SDS011;10568;48.176;16.316;2023-07-31T02:32:31;1.50;;;1.07;;
20814;SDS011;10568;48.176;16.316;2023-07-31T02:34:57;1.37;;;0.80;;
20814;SDS011;10568;48.176;16.316;2023-07-31T02:37:23;1.10;;;0.80;;
20814;SDS011;10568;48.176;16.316;2023-07-31T02:39:48;1.53;;;0.93;;
20814;SDS011;10568;48.176;16.316;2023-07-31T02:42:14;2.43;;;1.07;;
20814;SDS011;10568;48.176;16.316;2023-07-31T02:44:40;0.90;;;0.83;;
20814;SDS011;10568;48.176;16.316;2023-07-31T02:47:06;1.00;;;0.80;;
20814;SDS011;10568;48.176;16.316;2023-07-31T02:49:31;1.17;;;0.83;;
20814;SDS011;10568;48.176;16.316;2023-07-31T02:51:57;0.97;;;0.80;;
20814;SDS011;10568;48.176;16.316;2023-07-31T02:54:23;1.90;;;0.83;;
20814;SDS011;10568;48.176;16.316;2023-07-31T02:59:33;2.03;;;0.90;;
20814;SDS011;10568;48.176;16.316;2023-07-31T03:01:58;1.30;;;1.00;;
20814;SDS011;10568;48.176;16.316;2023-07-31T03:04:24;1.20;;;1.00;;
20814;SDS011;10568;48.176;16.316;2023-07-31T03:06:50;2.73;;;1.00;;
20814;SDS011;10568;48.176;16.316;2023-07-31T03:09:15;2.40;;;0.90;;
20814;SDS011;10568;48.176;16.316;2023-07-31T03:11:41;1.47;;;1.03;;
20814;SDS011;10568;48.176;16.316;2023-07-31T03:14:07;1.63;;;1.10;;
20814;SDS011;10568;48.176;16.316;2023-07-31T03:16:32;2.23;;;1.00;;
20814;SDS011;10568;48.176;16.316;2023-07-31T03:18:58;1.27;;;0.80;;
20814;SDS011;10568;48.176;16.316;2023-07-31T03:21:24;1.37;;;1.10;;
20814;SDS011;10568;48.176;16.316;2023-07-31T03:23:49;3.00;;;1.27;;
20814;SDS011;10568;48.176;16.316;2023-07-31T03:26:15;1.97;;;1.10;;
20814;SDS011;10568;48.176;16.316;2023-07-31T03:28:41;1.00;;;0.77;;
20814;SDS011;10568;48.176;16.316;2023-07-31T03:31:06;1.23;;;0.87;;
20814;SDS011;10568;48.176;16.316;2023-07-31T03:33:33;3.63;;;1.20;;
20814;SDS011;10568;48.176;16.316;2023-07-31T03:35:59;2.03;;;1.10;;
20814;SDS011;10568;48.176;16.316;2023-07-31T03:38:25;1.43;;;1.10;;
20814;SDS011;10568;48.176;16.316;2023-07-31T03:40:50;1.97;;;1.23;;
20814;SDS011;10568;48.176;16.316;2023-07-31T03:43:16;1.53;;;1.20;;
20814;SDS011;10568;48.176;16.316;2023-07-31T03:45:42;1.30;;;1.00;;
20814;SDS011;10568;48.176;16.316;2023-07-31T03:48:07;3.90;;;0.90;;
20814;SDS011;10568;48.176;16.316;2023-07-31T03:50:33;1.10;;;1.00;;
20814;SDS011;10568;48.176;16.316;2023-07-31T03:52:59;2.07;;;1.30;;
20814;SDS011;10568;48.176;16.316;2023-07-31T03:55:25;1.30;;;1.10;;
20814;SDS011;10568;48.176;16.316;2023-07-31T03:57:50;1.60;;;1.00;;
20814;SDS011;10568;48.176;16.316;2023-07-31T04:00:16;1.10;;;1.00;;
20814;SDS011;10568;48.176;16.316;2023-07-31T04:02:42;2.43;;;1.03;;
20814;SDS011;10568;48.176;16.316;2023-07-31T04:05:07;1.60;;;1.37;;
20814;SDS011;10568;48.176;16.316;2023-07-31T04:07:33;2.23;;;1.30;;
20814;SDS011;10568;48.176;16.316;2023-07-31T04:09:59;1.43;;;1.00;;
20814;SDS011;10568;48.176;16.316;2023-07-31T04:12:25;1.57;;;1.30;;
20814;SDS011;10568;48.176;16.316;2023-07-31T04:14:50;1.30;;;1.10;;
20814;SDS011;10568;48.176;16.316;2023-07-31T04:17:19;1.20;;;1.10;;
20814;SDS011;10568;48.176;16.316;2023-07-31T04:19:45;1.60;;;1.10;;
20814;SDS011;10568;48.176;16.316;2023-07-31T04:22:10;1.73;;;1.20;;
20814;SDS011;10568;48.176;16.316;2023-07-31T04:24:36;2.33;;;1.33;;
20814;SDS011;10568;48.176;16.316;2023-07-31T04:27:01;1.47;;;1.13;;
20814;SDS011;10568;48.176;16.316;2023-07-31T04:29:27;2.27;;;1.20;;
20814;SDS011;10568;48.176;16.316;2023-07-31T04:31:53;3.00;;;1.40;;
20814;SDS011;10568;48.176;16.316;2023-07-31T04:34:19;2.87;;;1.60;;
20814;SDS011;10568;48.176;16.316;2023-07-31T04:36:44;2.20;;;1.13;;
20814;SDS011;10568;48.176;16.316;2023-07-31T04:39:10;2.10;;;1.30;;
20814;SDS011;10568;48.176;16.316;2023-07-31T04:41:36;2.50;;;1.20;;
20814;SDS011;10568;48.176;16.316;2023-07-31T04:44:01;1.23;;;1.07;;
20814;SDS011;10568;48.176;16.316;2023-07-31T04:46:28;2.77;;;1.30;;
20814;SDS011;10568;48.176;16.316;2023-07-31T04:48:54;1.63;;;1.40;;
20814;SDS011;10568;48.176;16.316;2023-07-31T04:51:20;4.07;;;1.50;;
20814;SDS011;10568;48.176;16.316;2023-07-31T04:53:46;2.33;;;1.30;;
20814;SDS011;10568;48.176;16.316;2023-07-31T04:56:12;2.67;;;1.40;;
20814;SDS011;10568;48.176;16.316;2023-07-31T04:58:37;1.87;;;1.30;;
20814;SDS011;10568;48.176;16.316;2023-07-31T05:01:03;1.97;;;1.10;;
20814;SDS011;10568;48.176;16.316;2023-07-31T05:03:29;1.97;;;1.33;;
20814;SDS011;10568;48.176;16.316;2023-07-31T05:09:07;1.83;;;1.43;;
20814;SDS011;10568;48.176;16.316;2023-07-31T05:11:34;2.23;;;1.30;;
20814;SDS011;10568;48.176;16.316;2023-07-31T05:14:00;1.80;;;1.30;;
20814;SDS011;10568;48.176;16.316;2023-07-31T05:16:26;3.83;;;1.23;;
20814;SDS011;10568;48.176;16.316;2023-07-31T05:18:52;2.97;;;1.27;;
20814;SDS011;10568;48.176;16.316;2023-07-31T05:21:18;1.80;;;1.20;;
20814;SDS011;10568;48.176;16.316;2023-07-31T05:23:44;1.50;;;1.10;;
20814;SDS011;10568;48.176;16.316;2023-07-31T05:26:10;1.57;;;1.30;;
20814;SDS011;10568;48.176;16.316;2023-07-31T05:28:35;15.33;;;4.77;;
20814;SDS011;10568;48.176;16.316;2023-07-31T05:31:02;7.63;;;3.00;;
20814;SDS011;10568;48.176;16.316;2023-07-31T05:33:29;7.23;;;2.63;;
20814;SDS011;10568;48.176;16.316;2023-07-31T05:35:55;2.50;;;1.50;;
20814;SDS011;10568;48.176;16.316;2023-07-31T05:38:20;2.47;;;1.37;;
20814;SDS011;10568;48.176;16.316;2023-07-31T05:40:46;4.47;;;1.50;;
20814;SDS011;10568;48.176;16.316;2023-07-31T05:43:12;5.57;;;1.30;;
20814;SDS011;10568;48.176;16.316;2023-07-31T05:45:38;1.67;;;1.20;;
20814;SDS011;10568;48.176;16.316;2023-07-31T05:48:05;1.73;;;1.30;;
20814;SDS011;10568;48.176;16.316;2023-07-31T05:50:31;2.23;;;1.10;;
20814;SDS011;10568;48.176;16.316;2023-07-31T05:52:57;1.37;;;1.17;;
20814;SDS011;10568;48.176;16.316;2023-07-31T05:55:23;2.57;;;1.30;;
20814;SDS011;10568;48.176;16.316;2023-07-31T05:57:51;3.03;;;1.70;;
20814;SDS011;10568;48.176;16.316;2023-07-31T06:00:18;2.23;;;1.23;;
20814;SDS011;10568;48.176;16.316;2023-07-31T06:02:43;2.27;;;1.10;;
20814;SDS011;10568;48.176;16.316;2023-07-31T06:05:09;1.90;;;1.20;;
20814;SDS011;10568;48.176;16.316;2023-07-31T06:07:35;2.73;;;1.10;;
20814;SDS011;10568;48.176;16.316;2023-07-31T06:10:01;1.43;;;1.20;;
20814;SDS011;10568;48.176;16.316;2023-07-31T06:15:52;3.00;;;1.30;;
20814;SDS011;10568;48.176;16.316;2023-07-31T06:18:17;3.03;;;1.00;;
20814;SDS011;10568;48.176;16.316;2023-07-31T06:20:43;2.30;;;1.17;;
20814;SDS011;10568;48.176;16.316;2023-07-31T06:23:09;2.93;;;1.13;;
20814;SDS011;10568;48.176;16.316;2023-07-31T06:25:35;3.30;;;1.38;;
20814;SDS011;10568;48.176;16.316;2023-07-31T06:28:00;1.95;;;1.20;;
20814;SDS011;10568;48.176;16.316;2023-07-31T06:30:26;1.60;;;1.10;;
20814;SDS011;10568;48.176;16.316;2023-07-31T06:32:52;1.73;;;1.20;;
20814;SDS011;10568;48.176;16.316;2023-07-31T06:35:17;3.53;;;1.20;;
20814;SDS011;10568;48.176;16.316;2023-07-31T06:37:43;2.35;;;1.20;;
20814;SDS011;10568;48.176;16.316;2023-07-31T06:40:09;2.75;;;1.20;;
20814;SDS011;10568;48.176;16.316;2023-07-31T06:42:35;3.08;;;1.30;;
20814;SDS011;10568;48.176;16.316;2023-07-31T06:45:01;1.63;;;1.10;;
20814;SDS011;10568;48.176;16.316;2023-07-31T06:47:27;1.92;;;1.08;;
20814;SDS011;10568;48.176;16.316;2023-07-31T06:49:53;1.00;;;0.90;;
20814;SDS011;10568;48.176;16.316;2023-07-31T06:52:19;1.77;;;1.10;;
20814;SDS011;10568;48.176;16.316;2023-07-31T06:54:56;1.80;;;0.95;;
20814;SDS011;10568;48.176;16.316;2023-07-31T06:57:40;1.58;;;1.00;;
20814;SDS011;10568;48.176;16.316;2023-07-31T07:00:06;1.10;;;0.93;;
20814;SDS011;10568;48.176;16.316;2023-07-31T07:02:32;2.55;;;1.15;;
20814;SDS011;10568;48.176;16.316;2023-07-31T07:04:58;2.55;;;0.98;;
20814;SDS011;10568;48.176;16.316;2023-07-31T07:07:24;1.73;;;1.02;;
20814;SDS011;10568;48.176;16.316;2023-07-31T07:09:49;2.30;;;0.88;;
20814;SDS011;10568;48.176;16.316;2023-07-31T07:12:15;1.25;;;0.85;;
20814;SDS011;10568;48.176;16.316;2023-07-31T07:14:41;1.75;;;1.15;;
20814;SDS011;10568;48.176;16.316;2023-07-31T07:17:06;0.95;;;0.70;;
20814;SDS011;10568;48.176;16.316;2023-07-31T07:19:32;2.08;;;0.90;;
20814;SDS011;10568;48.176;16.316;2023-07-31T07:21:58;2.92;;;0.95;;
20814;SDS011;10568;48.176;16.316;2023-07-31T07:24:26;1.73;;;0.80;;
20814;SDS011;10568;48.176;16.316;2023-07-31T07:26:52;1.27;;;0.60;;
20814;SDS011;10568;48.176;16.316;2023-07-31T07:29:17;1.45;;;0.70;;
20814;SDS011;10568;48.176;16.316;2023-07-31T07:31:43;4.65;;;1.10;;
20814;SDS011;10568;48.176;16.316;2023-07-31T07:34:08;2.65;;;0.63;;
20814;SDS011;10568;48.176;16.316;2023-07-31T07:36:34;1.38;;;0.80;;
20814;SDS011;10568;48.176;16.316;2023-07-31T07:39:00;2.78;;;0.70;;
20814;SDS011;10568;48.176;16.316;2023-07-31T07:41:25;2.88;;;0.88;;
20814;SDS011;10568;48.176;16.316;2023-07-31T07:43:52;1.70;;;0.70;;
20814;SDS011;10568;48.176;16.316;2023-07-31T07:46:17;1.50;;;0.80;;
20814;SDS011;10568;48.176;16.316;2023-07-31T07:48:43;1.73;;;0.90;;
20814;SDS011;10568;48.176;16.316;2023-07-31T07:51:09;1.42;;;1.08;;
20814;SDS011;10568;48.176;16.316;2023-07-31T07:53:34;1.55;;;0.80;;
20814;SDS011;10568;48.176;16.316;2023-07-31T07:56:00;2.13;;;0.80;;
20814;SDS011;10568;48.176;16.316;2023-07-31T07:58:26;1.70;;;0.90;;
20814;SDS011;10568;48.176;16.316;2023-07-31T08:00:51;3.58;;;1.13;;
20814;SDS011;10568;48.176;16.316;2023-07-31T08:03:18;1.40;;;0.63;;
20814;SDS011;10568;48.176;16.316;2023-07-31T08:05:44;2.05;;;0.80;;
20814;SDS011;10568;48.176;16.316;2023-07-31T08:08:14;0.80;;;0.63;;
20814;SDS011;10568;48.176;16.316;2023-07-31T08:10:41;2.03;;;0.93;;
20814;SDS011;10568;48.176;16.316;2023-07-31T08:13:07;1.27;;;0.80;;
20814;SDS011;10568;48.176;16.316;2023-07-31T08:15:34;1.25;;;0.68;;
20814;SDS011;10568;48.176;16.316;2023-07-31T08:18:00;3.38;;;0.93;;
20814;SDS011;10568;48.176;16.316;2023-07-31T08:20:26;2.20;;;0.80;;
20814;SDS011;10568;48.176;16.316;2023-07-31T08:22:52;1.27;;;0.70;;
20814;SDS011;10568;48.176;16.316;2023-07-31T08:25:18;1.63;;;0.80;;
20814;SDS011;10568;48.176;16.316;2023-07-31T08:27:44;3.35;;;1.10;;
20814;SDS011;10568;48.176;16.316;2023-07-31T08:30:11;1.45;;;0.95;;
20814;SDS011;10568;48.176;16.316;2023-07-31T08:32:37;2.53;;;0.90;;
20814;SDS011;10568;48.176;16.316;2023-07-31T08:35:03;1.90;;;0.98;;
20814;SDS011;10568;48.176;16.316;2023-07-31T08:37:29;1.45;;;0.77;;
20814;SDS011;10568;48.176;16.316;2023-07-31T08:39:55;3.13;;;0.75;;
20814;SDS011;10568;48.176;16.316;2023-07-31T08:42:20;3.17;;;0.95;;
20814;SDS011;10568;48.176;16.316;2023-07-31T08:44:46;2.47;;;1.00;;
20814;SDS011;10568;48.176;16.316;2023-07-31T08:47:13;2.75;;;0.77;;
20814;SDS011;10568;48.176;16.316;2023-07-31T08:49:40;1.98;;;0.90;;
20814;SDS011;10568;48.176;16.316;2023-07-31T08:52:07;1.48;;;0.80;;
20814;SDS011;10568;48.176;16.316;2023-07-31T08:54:33;1.58;;;0.90;;
20814;SDS011;10568;48.176;16.316;2023-07-31T08:56:59;2.65;;;0.93;;
20814;SDS011;10568;48.176;16.316;2023-07-31T08:59:26;2.03;;;0.80;;
20814;SDS011;10568;48.176;16.316;2023-07-31T09:01:55;1.65;;;1.10;;
20814;SDS011;10568;48.176;16.316;2023-07-31T09:04:26;1.63;;;0.90;;
20814;SDS011;10568;48.176;16.316;2023-07-31T09:06:53;4.15;;;0.90;;
20814;SDS011;10568;48.176;16.316;2023-07-31T09:09:24;0.90;;;0.70;;
20814;SDS011;10568;48.176;16.316;2023-07-31T09:11:50;1.42;;;0.98;;
20814;SDS011;10568;48.176;16.316;2023-07-31T09:14:17;1.75;;;0.90;;
20814;SDS011;10568;48.176;16.316;2023-07-31T09:16:55;2.67;;;1.08;;
20814;SDS011;10568;48.176;16.316;2023-07-31T09:19:33;1.70;;;0.85;;
20814;SDS011;10568;48.176;16.316;2023-07-31T09:22:02;1.50;;;0.90;;
20814;SDS011;10568;48.176;16.316;2023-07-31T09:24:28;3.00;;;0.85;;
20814;SDS011;10568;48.176;16.316;2023-07-31T09:26:56;2.00;;;1.00;;
20814;SDS011;10568;48.176;16.316;2023-07-31T09:29:23;1.52;;;0.90;;
20814;SDS011;10568;48.176;16.316;2023-07-31T09:31:51;1.90;;;0.80;;
20814;SDS011;10568;48.176;16.316;2023-07-31T09:34:17;0.80;;;0.70;;
20814;SDS011;10568;48.176;16.316;2023-07-31T09:36:47;1.88;;;0.90;;
20814;SDS011;10568;48.176;16.316;2023-07-31T09:39:15;3.03;;;1.00;;
20814;SDS011;10568;48.176;16.316;2023-07-31T09:41:43;3.30;;;1.00;;
20814;SDS011;10568;48.176;16.316;2023-07-31T09:44:10;2.17;;;0.90;;
20814;SDS011;10568;48.176;16.316;2023-07-31T09:46:36;1.95;;;1.05;;
20814;SDS011;10568;48.176;16.316;2023-07-31T09:49:12;1.83;;;0.70;;
20814;SDS011;10568;48.176;16.316;2023-07-31T09:51:40;1.45;;;0.70;;
20814;SDS011;10568;48.176;16.316;2023-07-31T09:54:14;2.72;;;0.90;;
20814;SDS011;10568;48.176;16.316;2023-07-31T09:56:44;3.20;;;1.00;;
20814;SDS011;10568;48.176;16.316;2023-07-31T09:59:12;1.50;;;0.73;;
20814;SDS011;10568;48.176;16.316;2023-07-31T10:01:42;2.17;;;0.93;;
20814;SDS011;10568;48.176;16.316;2023-07-31T10:04:10;1.92;;;0.95;;
20814;SDS011;10568;48.176;16.316;2023-07-31T10:06:36;2.70;;;0.82;;
20814;SDS011;10568;48.176;16.316;2023-07-31T10:09:07;1.20;;;0.80;;
20814;SDS011;10568;48.176;16.316;2023-07-31T10:11:35;1.50;;;0.60;;
20814;SDS011;10568;48.176;16.316;2023-07-31T10:14:17;2.00;;;0.80;;
20814;SDS011;10568;48.176;16.316;2023-07-31T10:16:45;2.75;;;1.05;;
20814;SDS011;10568;48.176;16.316;2023-07-31T10:19:11;2.00;;;1.10;;
20814;SDS011;10568;48.176;16.316;2023-07-31T10:21:37;3.13;;;0.88;;
20814;SDS011;10568;48.176;16.316;2023-07-31T10:24:06;2.00;;;0.70;;
20814;SDS011;10568;48.176;16.316;2023-07-31T10:26:33;1.92;;;0.60;;
20814;SDS011;10568;48.176;16.316;2023-07-31T10:29:02;2.17;;;0.60;;
20814;SDS011;10568;48.176;16.316;2023-07-31T10:31:33;2.10;;;1.02;;
20814;SDS011;10568;48.176;16.316;2023-07-31T10:34:00;1.63;;;0.80;;
20814;SDS011;10568;48.176;16.316;2023-07-31T10:36:28;2.88;;;0.85;;
20814;SDS011;10568;48.176;16.316;2023-07-31T10:38:54;1.63;;;0.70;;
20814;SDS011;10568;48.176;16.316;2023-07-31T10:41:27;1.33;;;0.60;;
20814;SDS011;10568;48.176;16.316;2023-07-31T10:43:57;1.52;;;0.90;;
20814;SDS011;10568;48.176;16.316;2023-07-31T10:46:25;2.47;;;0.82;;
20814;SDS011;10568;48.176;16.316;2023-07-31T10:49:02;2.25;;;0.80;;
20814;SDS011;10568;48.176;16.316;2023-07-31T10:51:34;1.10;;;0.60;;
20814;SDS011;10568;48.176;16.316;2023-07-31T10:54:19;1.17;;;0.70;;
20814;SDS011;10568;48.176;16.316;2023-07-31T10:56:45;0.60;;;0.60;;
20814;SDS011;10568;48.176;16.316;2023-07-31T10:59:14;1.38;;;0.82;;
20814;SDS011;10568;48.176;16.316;2023-07-31T11:01:54;1.73;;;0.63;;
20814;SDS011;10568;48.176;16.316;2023-07-31T11:04:25;1.58;;;0.63;;
20814;SDS011;10568;48.176;16.316;2023-07-31T11:06:58;0.70;;;0.55;;
20814;SDS011;10568;48.176;16.316;2023-07-31T11:09:29;1.00;;;0.70;;
20814;SDS011;10568;48.176;16.316;2023-07-31T11:11:56;3.60;;;0.90;;
20814;SDS011;10568;48.176;16.316;2023-07-31T11:14:22;1.48;;;0.90;;
20814;SDS011;10568;48.176;16.316;2023-07-31T11:16:51;0.98;;;0.65;;
20814;SDS011;10568;48.176;16.316;2023-07-31T11:19:23;1.73;;;0.60;;
20814;SDS011;10568;48.176;16.316;2023-07-31T11:21:50;2.15;;;0.70;;
20814;SDS011;10568;48.176;16.316;2023-07-31T11:24:18;1.20;;;0.73;;
20814;SDS011;10568;48.176;16.316;2023-07-31T11:26:50;3.05;;;0.80;;
20814;SDS011;10568;48.176;16.316;2023-07-31T11:29:17;2.22;;;0.70;;
20814;SDS011;10568;48.176;16.316;2023-07-31T11:31:43;1.05;;;0.55;;
20814;SDS011;10568;48.176;16.316;2023-07-31T11:34:10;1.95;;;0.65;;
20814;SDS011;10568;48.176;16.316;2023-07-31T11:36:35;1.55;;;0.75;;
20814;SDS011;10568;48.176;16.316;2023-07-31T11:39:08;1.65;;;0.77;;
20814;SDS011;10568;48.176;16.316;2023-07-31T11:41:34;1.20;;;0.80;;
20814;SDS011;10568;48.176;16.316;2023-07-31T11:44:00;1.38;;;0.82;;
20814;SDS011;10568;48.176;16.316;2023-07-31T11:46:27;1.92;;;0.82;;
20814;SDS011;10568;48.176;16.316;2023-07-31T11:48:58;2.22;;;0.80;;
20814;SDS011;10568;48.176;16.316;2023-07-31T11:51:25;1.13;;;0.80;;
20814;SDS011;10568;48.176;16.316;2023-07-31T11:53:58;4.53;;;0.90;;
20814;SDS011;10568;48.176;16.316;2023-07-31T11:56:26;1.33;;;0.80;;
20814;SDS011;10568;48.176;16.316;2023-07-31T11:58:53;0.95;;;0.70;;
20814;SDS011;10568;48.176;16.316;2023-07-31T12:01:23;2.13;;;0.70;;
20814;SDS011;10568;48.176;16.316;2023-07-31T12:03:52;2.75;;;0.65;;
20814;SDS011;10568;48.176;16.316;2023-07-31T12:06:18;2.50;;;0.77;;
20814;SDS011;10568;48.176;16.316;2023-07-31T12:08:46;1.15;;;0.70;;
20814;SDS011;10568;48.176;16.316;2023-07-31T12:11:12;2.15;;;0.70;;
20814;SDS011;10568;48.176;16.316;2023-07-31T12:13:42;1.58;;;0.68;;
20814;SDS011;10568;48.176;16.316;2023-07-31T12:16:08;1.52;;;0.70;;
20814;SDS011;10568;48.176;16.316;2023-07-31T12:18:35;1.00;;;0.75;;
20814;SDS011;10568;48.176;16.316;2023-07-31T12:21:03;1.15;;;0.80;;
20814;SDS011;10568;48.176;16.316;2023-07-31T12:23:31;2.75;;;0.90;;
20814;SDS011;10568;48.176;16.316;2023-07-31T12:26:04;1.60;;;0.80;;
20814;SDS011;10568;48.176;16.316;2023-07-31T12:28:41;0.90;;;0.60;;
20814;SDS011;10568;48.176;16.316;2023-07-31T12:31:12;1.08;;;0.68;;
20814;SDS011;10568;48.176;16.316;2023-07-31T12:33:38;2.30;;;0.77;;
20814;SDS011;10568;48.176;16.316;2023-07-31T12:36:12;1.83;;;0.98;;
20814;SDS011;10568;48.176;16.316;2023-07-31T12:38:39;1.10;;;0.60;;
20814;SDS011;10568;48.176;16.316;2023-07-31T12:41:05;1.42;;;0.80;;
20814;SDS011;10568;48.176;16.316;2023-07-31T12:43:37;1.83;;;0.90;;
20814;SDS011;10568;48.176;16.316;2023-07-31T12:46:04;1.75;;;0.80;;
20814;SDS011;10568;48.176;16.316;2023-07-31T12:48:32;1.88;;;0.90;;
20814;SDS011;10568;48.176;16.316;2023-07-31T12:50:58;1.10;;;0.60;;
20814;SDS011;10568;48.176;16.316;2023-07-31T12:53:24;1.00;;;0.70;;
20814;SDS011;10568;48.176;16.316;2023-07-31T12:55:50;1.80;;;0.85;;
20814;SDS011;10568;48.176;16.316;2023-07-31T12:58:16;1.38;;;0.73;;
20814;SDS011;10568;48.176;16.316;2023-07-31T13:00:41;1.67;;;0.80;;
20814;SDS011;10568;48.176;16.316;2023-07-31T13:03:07;1.63;;;0.80;;
20814;SDS011;10568;48.176;16.316;2023-07-31T13:05:33;2.83;;;1.00;;
20814;SDS011;10568;48.176;16.316;2023-07-31T13:07:59;1.42;;;0.90;;
20814;SDS011;10568;48.176;16.316;2023-07-31T13:10:25;1.67;;;0.90;;
20814;SDS011;10568;48.176;16.316;2023-07-31T13:12:53;1.65;;;0.80;;
20814;SDS011;10568;48.176;16.316;2023-07-31T13:15:19;2.08;;;0.82;;
20814;SDS011;10568;48.176;16.316;2023-07-31T13:17:45;1.20;;;0.70;;
20814;SDS011;10568;48.176;16.316;2023-07-31T13:20:11;1.73;;;0.77;;
20814;SDS011;10568;48.176;16.316;2023-07-31T13:22:37;1.48;;;0.80;;
20814;SDS011;10568;48.176;16.316;2023-07-31T13:25:03;1.77;;;0.80;;
20814;SDS011;10568;48.176;16.316;2023-07-31T13:27:30;1.88;;;1.00;;
20814;SDS011;10568;48.176;16.316;2023-07-31T13:29:56;1.38;;;0.82;;
20814;SDS011;10568;48.176;16.316;2023-07-31T13:32:21;1.48;;;0.90;;
20814;SDS011;10568;48.176;16.316;2023-07-31T13:34:47;1.77;;;0.75;;
20814;SDS011;10568;48.176;16.316;2023-07-31T13:37:14;0.93;;;0.80;;
20814;SDS011;10568;48.176;16.316;2023-07-31T13:39:40;2.53;;;0.90;;
20814;SDS011;10568;48.176;16.316;2023-07-31T13:42:07;2.97;;;0.70;;
20814;SDS011;10568;48.176;16.316;2023-07-31T13:44:37;1.60;;;0.88;;
20814;SDS011;10568;48.176;16.316;2023-07-31T13:47:03;2.53;;;0.90;;
20814;SDS011;10568;48.176;16.316;2023-07-31T13:49:29;1.73;;;0.80;;
20814;SDS011;10568;48.176;16.316;2023-07-31T13:51:55;3.75;;;0.90;;
20814;SDS011;10568;48.176;16.316;2023-07-31T13:54:22;2.05;;;0.80;;
20814;SDS011;10568;48.176;16.316;2023-07-31T13:56:48;0.75;;;0.60;;
20814;SDS011;10568;48.176;16.316;2023-07-31T13:59:14;1.95;;;0.95;;
20814;SDS011;10568;48.176;16.316;2023-07-31T14:01:42;2.92;;;1.20;;
20814;SDS011;10568;48.176;16.316;2023-07-31T14:04:08;1.27;;;0.73;;
20814;SDS011;10568;48.176;16.316;2023-07-31T14:06:34;2.83;;;1.10;;
20814;SDS011;10568;48.176;16.316;2023-07-31T14:08:59;1.45;;;0.88;;
20814;SDS011;10568;48.176;16.316;2023-07-31T14:11:25;2.08;;;0.90;;
20814;SDS011;10568;48.176;16.316;2023-07-31T14:13:51;1.45;;;0.85;;
20814;SDS011;10568;48.176;16.316;2023-07-31T14:16:17;2.60;;;1.25;;
20814;SDS011;10568;48.176;16.316;2023-07-31T14:18:43;1.17;;;0.90;;
20814;SDS011;10568;48.176;16.316;2023-07-31T14:21:11;1.75;;;1.00;;
20814;SDS011;10568;48.176;16.316;2023-07-31T14:23:37;2.10;;;0.90;;
20814;SDS011;10568;48.176;16.316;2023-07-31T14:26:03;1.63;;;1.00;;
20814;SDS011;10568;48.176;16.316;2023-07-31T14:28:29;2.47;;;0.85;;
20814;SDS011;10568;48.176;16.316;2023-07-31T14:30:55;1.40;;;1.10;;
20814;SDS011;10568;48.176;16.316;2023-07-31T14:33:21;1.58;;;0.70;;
20814;SDS011;10568;48.176;16.316;2023-07-31T14:35:46;1.63;;;0.98;;
20814;SDS011;10568;48.176;16.316;2023-07-31T14:38:12;1.13;;;1.00;;
20814;SDS011;10568;48.176;16.316;2023-07-31T14:40:38;0.93;;;0.80;;
20814;SDS011;10568;48.176;16.316;2023-07-31T14:43:04;1.63;;;0.88;;
20814;SDS011;10568;48.176;16.316;2023-07-31T14:45:29;1.52;;;0.80;;
20814;SDS011;10568;48.176;16.316;2023-07-31T14:47:55;1.27;;;0.85;;
20814;SDS011;10568;48.176;16.316;2023-07-31T14:50:21;2.40;;;1.00;;
20814;SDS011;10568;48.176;16.316;2023-07-31T14:52:48;1.90;;;1.20;;